Time;durP1;ratioP1;P1;durP2;ratioP2;P2;SDS_P1;SDS_P2;PMS_P1;PMS_P2;Temp;Humidity;BMP_temperature;BMP_pressure;BME280_temperature;BME280_humidity;BME280_pressure;Samples;Min_cycle;Max_cycle;Signal;HPM_P1;HPM_P2
2022/04/07 00:01:27;;;;;;;;;;;;;;;29.34;22.52;100331.50;5016839;28;822;-44
2022/04/07 00:03:52;;;;;;;;;;;;;;;29.23;22.39;100325.91;5019097;28;885;-44
2022/04/07 00:06:17;;;;;;;;;;;;;;;29.38;22.26;100322.97;5016723;28;746;-44
2022/04/07 00:08:43;;;;;;;;;;;;;;;29.92;21.54;100323.75;5018302;28;743;-43
2022/04/07 00:11:08;;;;;;;;;;;;;;;29.93;21.68;100308.31;5021286;28;1890;-44
2022/04/07 00:13:34;;;;;;;;;;;;;;;29.96;21.58;100315.19;5016709;28;854;-43
2022/04/07 00:16:00;;;;;;;;;;;;;;;30.12;21.37;100312.00;5021611;28;877;-43
2022/04/07 00:18:28;;;;;;;;;;;;;;;30.20;21.26;100313.69;5016346;28;849;-44
2022/04/07 00:20:53;;;;;;;;;;;;;;;30.00;21.35;100303.72;5016670;28;873;-43
2022/04/07 00:23:19;;;;;;;;;;;;;;;29.48;22.18;100288.16;5016442;28;814;-44
2022/04/07 00:25:44;;;;;;;;;;;;;;;29.82;21.78;100278.13;5020995;28;849;-45
2022/04/07 00:28:10;;;;;;;;;;;;;;;30.09;21.55;100268.22;5017855;28;890;-43
2022/04/07 00:30:37;;;;;;;;;;;;;;;30.08;21.42;100263.84;5016485;28;1952;-44
2022/04/07 00:33:03;;;;;;;;;;;;;;;30.06;21.52;100262.16;5029339;28;896;-43
2022/04/07 00:35:28;;;;;;;;;;;;;;;30.11;21.40;100261.53;5018485;28;1197;-44
2022/04/07 00:37:54;;;;;;;;;;;;;;;29.96;21.44;100255.53;5016779;28;1161;-43
2022/04/07 00:40:19;;;;;;;;;;;;;;;29.52;21.73;100246.06;5022422;28;904;-43
2022/04/07 00:42:45;;;;;;;;;;;;;;;29.88;21.58;100249.28;5017466;28;813;-44
2022/04/07 00:45:11;;;;;;;;;;;;;;;30.57;20.92;100239.81;5016555;28;782;-44
2022/04/07 00:47:36;;;;;;;;;;;;;;;30.87;20.39;100239.19;5016105;28;786;-43
2022/04/07 00:50:02;;;;;;;;;;;;;;;30.26;20.96;100228.72;5017029;28;1053;-43
2022/04/07 00:52:28;;;;;;;;;;;;;;;29.48;21.83;100231.25;5019468;28;1879;-44
2022/04/07 00:54:53;;;;;;;;;;;;;;;29.24;22.08;100227.34;5026727;28;889;-43
2022/04/07 00:57:18;;;;;;;;;;;;;;;30.12;21.34;100227.09;5019498;28;866;-44
2022/04/07 00:59:45;;;;;;;;;;;;;;;30.62;20.82;100220.13;5018704;28;821;-43
2022/04/07 01:02:11;;;;;;;;;;;;;;;30.66;20.67;100221.38;5018532;28;743;-44
2022/04/07 01:04:36;;;;;;;;;;;;;;;29.46;21.94;100220.63;5019735;28;871;-43
2022/04/07 01:07:01;;;;;;;;;;;;;;;29.26;22.09;100214.41;5024018;28;782;-43
2022/04/07 01:09:27;;;;;;;;;;;;;;;29.07;22.49;100203.41;5024378;28;843;-43
2022/04/07 01:11:52;;;;;;;;;;;;;;;29.05;22.66;100200.06;5034833;28;1894;-44
2022/04/07 01:14:17;;;;;;;;;;;;;;;28.94;22.79;100196.94;5018164;28;783;-44
2022/04/07 01:16:43;;;;;;;;;;;;;;;29.27;22.62;100203.38;5019467;28;834;-43
2022/04/07 01:19:08;;;;;;;;;;;;;;;29.20;22.72;100192.53;5020579;28;867;-44
2022/04/07 01:21:34;;;;;;;;;;;;;;;29.54;22.42;100188.94;5019396;28;878;-43
2022/04/07 01:24:06;;;;;;;;;;;;;;;30.00;21.72;100189.81;5022370;28;853;-43
2022/04/07 01:26:38;;;;;;;;;;;;;;;30.08;21.52;100188.72;5021445;28;980;-44
2022/04/07 01:29:05;;;;;;;;;;;;;;;29.92;21.58;100185.47;5018869;28;865;-44
2022/04/07 01:31:31;;;;;;;;;;;;;;;30.14;21.51;100189.75;5023499;28;2000;-43
2022/04/07 01:33:57;;;;;;;;;;;;;;;30.29;21.36;100178.63;5018811;28;837;-44
2022/04/07 01:36:22;;;;;;;;;;;;;;;29.76;21.79;100177.84;5019318;28;794;-43
2022/04/07 01:38:47;;;;;;;;;;;;;;;29.40;21.94;100167.28;5018297;28;1168;-43
2022/04/07 01:41:13;;;;;;;;;;;;;;;30.16;21.53;100174.09;5033692;28;1000;-43
2022/04/07 01:43:38;;;;;;;;;;;;;;;30.11;21.51;100165.75;5019405;28;818;-43
2022/04/07 01:46:03;;;;;;;;;;;;;;;30.18;21.34;100167.38;5018980;28;790;-43
2022/04/07 01:48:29;;;;;;;;;;;;;;;30.30;21.33;100166.72;5018973;28;842;-43
2022/04/07 01:50:54;;;;;;;;;;;;;;;30.51;21.04;100154.66;5017308;28;2001;-44
2022/04/07 01:53:19;;;;;;;;;;;;;;;29.76;21.71;100154.25;5018821;28;769;-43
2022/04/07 01:55:45;;;;;;;;;;;;;;;29.58;22.08;100153.06;5023173;28;847;-43
2022/04/07 01:58:10;;;;;;;;;;;;;;;29.26;22.45;100150.22;5021202;28;844;-43
2022/04/07 02:00:36;;;;;;;;;;;;;;;30.39;21.22;100148.28;5018436;28;967;-43
2022/04/07 02:03:04;;;;;;;;;;;;;;;30.59;20.93;100155.44;5017644;28;854;-43
2022/04/07 02:05:29;;;;;;;;;;;;;;;30.72;20.82;100149.91;5018732;28;812;-43
2022/04/07 02:07:54;;;;;;;;;;;;;;;29.60;22.08;100152.03;5018478;28;1070;-43
2022/04/07 02:10:21;;;;;;;;;;;;;;;29.30;22.26;100148.78;5022954;28;886;-43
2022/04/07 02:12:46;;;;;;;;;;;;;;;30.30;21.26;100147.72;5019872;28;1971;-43
2022/04/07 02:15:12;;;;;;;;;;;;;;;30.53;20.92;100149.84;5018627;28;843;-44
2022/04/07 02:17:37;;;;;;;;;;;;;;;30.69;20.99;100147.63;5018391;28;818;-44
2022/04/07 02:20:04;;;;;;;;;;;;;;;29.59;21.86;100145.78;5018530;28;794;-44
2022/04/07 02:22:29;;;;;;;;;;;;;;;29.36;22.25;100149.81;5020233;28;1294;-43
2022/04/07 02:24:55;;;;;;;;;;;;;;;29.85;21.90;100154.84;5020145;28;894;-43
2022/04/07 02:27:20;;;;;;;;;;;;;;;30.23;21.47;100152.38;5018288;28;770;-43
2022/04/07 02:29:45;;;;;;;;;;;;;;;30.49;21.16;100142.38;5018450;28;889;-43
2022/04/07 02:32:13;;;;;;;;;;;;;;;30.58;20.83;100140.22;5017696;28;1970;-43
2022/04/07 02:34:39;;;;;;;;;;;;;;;29.46;22.18;100141.22;5018119;28;758;-44
2022/04/07 02:37:04;;;;;;;;;;;;;;;29.22;22.57;100140.88;5018192;28;746;-43
2022/04/07 02:39:30;;;;;;;;;;;;;;;29.47;22.39;100156.44;5024056;28;1223;-44
2022/04/07 02:41:55;;;;;;;;;;;;;;;29.97;21.94;100159.56;5017643;28;1415;-43
2022/04/07 02:44:20;;;;;;;;;;;;;;;30.27;21.48;100156.28;5017974;28;919;-43
2022/04/07 02:46:46;;;;;;;;;;;;;;;30.51;21.01;100153.84;5017760;28;751;-43
2022/04/07 02:49:11;;;;;;;;;;;;;;;29.69;22.00;100148.03;5020937;28;890;-43
2022/04/07 02:51:36;;;;;;;;;;;;;;;29.02;22.66;100138.19;5017648;28;1910;-43
2022/04/07 02:54:02;;;;;;;;;;;;;;;29.99;21.97;100136.63;5021588;28;841;-43
2022/04/07 02:56:27;;;;;;;;;;;;;;;30.15;21.55;100124.41;5018291;28;889;-44
2022/04/07 02:58:52;;;;;;;;;;;;;;;30.49;21.21;100124.22;5017997;28;727;-43
2022/04/07 03:01:18;;;;;;;;;;;;;;;30.41;21.39;100122.56;5021641;28;801;-43
2022/04/07 03:03:43;;;;;;;;;;;;;;;29.39;22.19;100119.56;5036517;28;817;-44
2022/04/07 03:06:09;;;;;;;;;;;;;;;29.13;22.53;100121.31;5036479;28;762;-44
2022/04/07 03:08:34;;;;;;;;;;;;;;;29.48;22.78;100116.63;5036342;28;840;-43
2022/04/07 03:11:00;;;;;;;;;;;;;;;29.99;22.05;100100.53;5019990;28;1902;-43
2022/04/07 03:13:25;;;;;;;;;;;;;;;30.20;21.79;100093.94;5020059;28;861;-43
2022/04/07 03:15:51;;;;;;;;;;;;;;;30.44;21.41;100094.19;5017673;28;825;-43
2022/04/07 03:18:16;;;;;;;;;;;;;;;30.21;21.50;100090.19;5034026;28;1283;-43
2022/04/07 03:20:41;;;;;;;;;;;;;;;29.40;21.88;100090.59;5036344;28;834;-42
2022/04/07 03:23:07;;;;;;;;;;;;;;;29.15;22.67;100075.03;5034253;28;813;-43
2022/04/07 03:25:32;;;;;;;;;;;;;;;30.01;22.00;100068.63;5023018;28;1049;-44
2022/04/07 03:27:57;;;;;;;;;;;;;;;29.98;22.04;100064.44;5022384;28;957;-44
2022/04/07 03:30:23;;;;;;;;;;;;;;;29.89;22.05;100066.59;5017267;28;862;-44
2022/04/07 03:32:48;;;;;;;;;;;;;;;29.55;22.19;100063.22;5016880;28;1968;-44
2022/04/07 03:35:13;;;;;;;;;;;;;;;28.51;20.39;100070.97;5016874;28;895;-43
2022/04/07 03:37:38;;;;;;;;;;;;;;;27.54;20.91;100066.63;5016286;28;1222;-43
2022/04/07 03:40:04;;;;;;;;;;;;;;;29.00;22.10;100059.06;5025486;28;830;-43
2022/04/07 03:42:29;;;;;;;;;;;;;;;29.33;21.13;100064.34;5017309;28;866;-43
2022/04/07 03:44:55;;;;;;;;;;;;;;;29.38;20.18;100046.66;5017585;28;833;-42
2022/04/07 03:47:20;;;;;;;;;;;;;;;29.19;20.29;100041.94;5016647;28;910;-42
2022/04/07 03:49:45;;;;;;;;;;;;;;;28.80;20.32;100047.22;5017074;28;902;-43
2022/04/07 03:52:10;;;;;;;;;;;;;;;28.54;20.00;100032.69;5022723;28;1910;-43
2022/04/07 03:54:36;;;;;;;;;;;;;;;28.43;20.33;100023.34;5021105;28;803;-44
2022/04/07 03:57:01;;;;;;;;;;;;;;;28.51;20.07;100027.69;5017405;28;826;-43
2022/04/07 03:59:26;;;;;;;;;;;;;;;28.57;19.45;100021.44;5016474;28;803;-42
2022/04/07 04:01:52;;;;;;;;;;;;;;;28.51;19.54;100007.94;5015678;28;822;-43
2022/04/07 04:04:20;;;;;;;;;;;;;;;28.56;19.08;100000.03;5018585;28;819;-42
2022/04/07 04:06:45;;;;;;;;;;;;;;;28.64;19.14;99991.69;5016635;28;843;-43
2022/04/07 04:09:10;;;;;;;;;;;;;;;28.69;19.12;99988.31;5018942;28;968;-43
2022/04/07 04:11:36;;;;;;;;;;;;;;;28.62;19.37;99987.50;5016409;28;1953;-43
2022/04/07 04:14:01;;;;;;;;;;;;;;;28.59;19.20;99978.75;5015047;28;754;-43
2022/04/07 04:16:27;;;;;;;;;;;;;;;28.56;19.33;99973.78;5017503;28;780;-42
2022/04/07 04:18:52;;;;;;;;;;;;;;;28.59;19.38;99969.81;5021348;28;781;-44
2022/04/07 04:21:17;;;;;;;;;;;;;;;28.59;19.26;99964.41;5016592;28;866;-43
2022/04/07 04:23:43;;;;;;;;;;;;;;;28.63;19.50;99970.25;5015563;28;734;-43
2022/04/07 04:26:08;;;;;;;;;;;;;;;28.69;19.25;99962.09;5024817;28;871;-42
2022/04/07 04:28:33;;;;;;;;;;;;;;;28.81;19.11;99964.97;5020157;28;809;-43
2022/04/07 04:30:59;;;;;;;;;;;;;;;28.88;19.16;99954.09;5022113;28;2246;-43
2022/04/07 04:33:24;;;;;;;;;;;;;;;28.87;19.19;99948.91;5019824;28;1410;-43
2022/04/07 04:35:49;;;;;;;;;;;;;;;28.85;19.10;99947.25;5023303;28;904;-43
2022/04/07 04:38:14;;;;;;;;;;;;;;;28.80;19.26;99944.34;5019986;28;1028;-43
2022/04/07 04:40:40;;;;;;;;;;;;;;;28.66;19.64;99948.16;5024951;28;817;-42
2022/04/07 04:43:05;;;;;;;;;;;;;;;29.20;19.10;99942.53;5026907;28;1048;-43
2022/04/07 04:45:30;;;;;;;;;;;;;;;29.63;18.89;99941.03;5023385;28;794;-43
2022/04/07 04:47:56;;;;;;;;;;;;;;;29.99;18.54;99941.38;5019485;28;814;-43
2022/04/07 04:50:21;;;;;;;;;;;;;;;30.14;18.69;99951.88;5019950;28;798;-44
2022/04/07 04:52:47;;;;;;;;;;;;;;;30.44;18.56;99944.94;5020116;28;1922;-43
2022/04/07 04:55:12;;;;;;;;;;;;;;;30.43;18.55;99945.97;5024931;28;878;-43
2022/04/07 04:57:37;;;;;;;;;;;;;;;29.61;19.64;99939.59;5019855;28;858;-43
2022/04/07 05:00:03;;;;;;;;;;;;;;;28.46;21.18;99930.94;5019519;28;826;-43
2022/04/07 05:02:28;;;;;;;;;;;;;;;29.33;20.04;99926.19;5019898;28;841;-43
2022/04/07 05:04:54;;;;;;;;;;;;;;;29.68;19.78;99913.25;5019761;28;787;-43
2022/04/07 05:07:19;;;;;;;;;;;;;;;29.60;19.81;99908.94;5019947;28;913;-44
2022/04/07 05:09:45;;;;;;;;;;;;;;;29.56;20.00;99899.59;5025398;28;865;-43
2022/04/07 05:12:10;;;;;;;;;;;;;;;29.51;20.22;99894.00;5019117;28;1915;-44
2022/04/07 05:14:35;;;;;;;;;;;;;;;29.00;20.97;99892.03;5019398;28;889;-44
2022/04/07 05:17:01;;;;;;;;;;;;;;;28.54;21.71;99893.88;5018995;28;793;-43
2022/04/07 05:19:26;;;;;;;;;;;;;;;29.09;20.77;99896.13;5018911;28;1038;-43
2022/04/07 05:21:51;;;;;;;;;;;;;;;29.08;20.88;99901.75;5026552;28;1049;-43
2022/04/07 05:24:18;;;;;;;;;;;;;;;29.23;20.69;99908.78;5038147;28;805;-43
2022/04/07 05:26:43;;;;;;;;;;;;;;;29.51;20.48;99908.34;5038003;28;786;-44
2022/04/07 05:29:09;;;;;;;;;;;;;;;28.44;21.96;99916.81;5037928;28;1108;-43
2022/04/07 05:31:34;;;;;;;;;;;;;;;28.09;22.41;99911.63;5037941;28;1959;-43
2022/04/07 05:33:59;;;;;;;;;;;;;;;29.03;21.31;99918.66;5032194;28;770;-43
2022/04/07 05:36:26;;;;;;;;;;;;;;;29.35;20.71;99915.16;5017602;28;839;-43
2022/04/07 05:38:51;;;;;;;;;;;;;;;28.85;21.75;99912.06;5020853;28;1112;-44
2022/04/07 05:41:17;;;;;;;;;;;;;;;29.13;21.50;99904.66;5032876;28;1363;-44
2022/04/07 05:43:42;;;;;;;;;;;;;;;29.85;21.39;99924.38;5030964;28;1284;-43
2022/04/07 05:46:07;;;;;;;;;;;;;;;29.83;21.66;99929.19;5029866;28;1337;-42
2022/04/07 05:48:32;;;;;;;;;;;;;;;29.09;21.72;99920.50;5031350;28;1311;-43
2022/04/07 05:50:58;;;;;;;;;;;;;;;28.69;22.54;99917.97;5022215;28;1910;-42
2022/04/07 05:53:23;;;;;;;;;;;;;;;29.70;22.17;99920.13;5025979;28;1515;-43
2022/04/07 05:55:49;;;;;;;;;;;;;;;29.74;21.93;99933.25;5031578;28;1501;-42
2022/04/07 05:58:15;;;;;;;;;;;;;;;29.67;21.78;99939.56;5024166;28;1546;-42
2022/04/07 06:00:41;;;;;;;;;;;;;;;29.66;21.85;99953.34;5022023;28;742;-43
2022/04/07 06:03:06;;;;;;;;;;;;;;;29.65;21.71;99957.06;5025054;28;1240;-43
2022/04/07 06:05:32;;;;;;;;;;;;;;;29.15;22.25;99945.91;5024496;28;1486;-43
2022/04/07 06:08:00;;;;;;;;;;;;;;;28.85;22.78;99935.59;5026792;28;1142;-43
2022/04/07 06:10:25;;;;;;;;;;;;;;;29.87;22.13;99938.56;5027721;28;1152;-43
2022/04/07 06:12:50;;;;;;;;;;;;;;;29.92;22.18;99929.75;5031748;28;1902;-43
2022/04/07 06:15:16;;;;;;;;;;;;;;;29.67;22.51;99923.28;5028157;28;1389;-42
2022/04/07 06:17:41;;;;;;;;;;;;;;;29.10;22.55;99915.91;5022940;28;1407;-42
2022/04/07 06:20:07;;;;;;;;;;;;;;;28.75;23.02;99895.44;5034815;28;1137;-42
2022/04/07 06:22:33;;;;;;;;;;;;;;;28.96;23.48;99897.00;5029920;28;1192;-42
2022/04/07 06:24:58;;;;;;;;;;;;;;;29.63;22.77;99877.88;5026032;28;1112;-42
2022/04/07 06:27:23;;;;;;;;;;;;;;;29.40;23.03;99866.56;5026183;28;1219;-42
2022/04/07 06:29:49;;;;;;;;;;;;;;;29.75;22.84;99849.00;5019615;28;1391;-43
2022/04/07 06:32:14;;;;;;;;;;;;;;;29.01;23.03;99844.13;5029781;28;1902;-44
2022/04/07 06:34:39;;;;;;;;;;;;;;;28.95;23.64;99849.34;5024360;28;1288;-42
2022/04/07 06:37:04;;;;;;;;;;;;;;;29.94;23.15;99849.88;5026603;28;1376;-43
2022/04/07 06:39:30;;;;;;;;;;;;;;;30.06;22.41;99860.78;5032185;28;1229;-42
2022/04/07 06:41:55;;;;;;;;;;;;;;;29.45;22.58;99860.47;5020107;28;889;-43
2022/04/07 06:44:20;;;;;;;;;;;;;;;28.89;22.82;99858.34;5023224;28;1320;-42
2022/04/07 06:46:46;;;;;;;;;;;;;;;28.71;23.39;99850.94;5026817;28;1331;-42
2022/04/07 06:49:11;;;;;;;;;;;;;;;29.82;22.75;99843.50;5028773;28;1405;-42
2022/04/07 06:51:36;;;;;;;;;;;;;;;29.66;22.86;99839.50;5029262;28;1961;-42
2022/04/07 06:54:02;;;;;;;;;;;;;;;29.93;22.53;99856.31;5022256;28;1331;-42
2022/04/07 06:56:27;;;;;;;;;;;;;;;29.25;22.55;99847.06;5023098;28;1390;-41
2022/04/07 06:58:53;;;;;;;;;;;;;;;28.99;23.18;99857.03;5021565;28;1174;-41
2022/04/07 07:01:18;;;;;;;;;;;;;;;29.91;22.76;99861.13;5024049;28;1323;-43
2022/04/07 07:03:43;;;;;;;;;;;;;;;29.93;22.67;99878.00;5032838;28;1695;-41
2022/04/07 07:06:09;;;;;;;;;;;;;;;29.58;22.43;99873.91;5018319;28;1401;-42
2022/04/07 07:08:34;;;;;;;;;;;;;;;28.86;23.35;99877.72;5031218;28;1293;-42
2022/04/07 07:10:59;;;;;;;;;;;;;;;28.52;23.47;99885.97;5023604;28;1915;-44
2022/04/07 07:13:25;;;;;;;;;;;;;;;29.17;23.61;99886.94;5031960;28;1288;-42
2022/04/07 07:15:50;;;;;;;;;;;;;;;29.63;23.20;99886.81;5020185;28;1396;-41
2022/04/07 07:18:16;;;;;;;;;;;;;;;29.82;23.04;99886.88;5023079;28;1114;-41
2022/04/07 07:20:41;;;;;;;;;;;;;;;29.29;22.84;99878.09;5024007;28;1173;-41
2022/04/07 07:23:07;;;;;;;;;;;;;;;28.93;23.19;99877.66;5023261;28;1411;-44
2022/04/07 07:25:32;;;;;;;;;;;;;;;28.54;23.67;99878.47;5026916;28;1192;-41
2022/04/07 07:27:58;;;;;;;;;;;;;;;29.13;23.69;99868.63;5032485;28;1466;-42
2022/04/07 07:30:24;;;;;;;;;;;;;;;29.72;23.02;99860.28;5020842;28;1379;-41
2022/04/07 07:32:51;;;;;;;;;;;;;;;29.64;23.17;99837.00;5030472;28;1902;-42
2022/04/07 07:35:20;;;;;;;;;;;;;;;28.78;23.52;99835.47;5023818;28;1185;-42
2022/04/07 07:38:00;;;;;;;;;;;;;;;28.48;23.56;99823.34;5027140;28;1311;-41
2022/04/07 07:40:27;;;;;;;;;;;;;;;29.07;23.76;99802.63;5029588;28;1429;-42
2022/04/07 07:42:56;;;;;;;;;;;;;;;29.88;22.87;99803.84;5032063;28;1416;-42
2022/04/07 07:45:22;;;;;;;;;;;;;;;30.08;22.71;99806.31;5032341;28;1050;-41
2022/04/07 07:47:47;;;;;;;;;;;;;;;29.32;22.79;99805.38;5030357;28;1418;-40
2022/04/07 07:50:13;;;;;;;;;;;;;;;28.61;23.18;99805.41;5031207;28;1141;-40
2022/04/07 07:52:39;;;;;;;;;;;;;;;28.45;23.29;99783.19;5028270;28;1953;-40
2022/04/07 07:55:04;;;;;;;;;;;;;;;29.44;23.38;99780.25;5030818;28;1066;-42
2022/04/07 07:57:30;;;;;;;;;;;;;;;29.80;22.96;99780.56;5031305;28;1110;-41
2022/04/07 07:59:56;;;;;;;;;;;;;;;29.79;22.93;99768.91;5018622;28;1205;-40
2022/04/07 08:02:21;;;;;;;;;;;;;;;29.11;23.13;99759.72;5026742;28;1162;-40
2022/04/07 08:04:47;;;;;;;;;;;;;;;28.79;23.64;99747.84;5021281;28;1459;-40
2022/04/07 08:07:12;;;;;;;;;;;;;;;29.31;23.33;99743.28;5029153;28;1149;-41
2022/04/07 08:09:37;;;;;;;;;;;;;;;29.89;22.82;99749.41;5035132;28;1419;-42
2022/04/07 08:12:03;;;;;;;;;;;;;;;29.51;23.18;99750.41;5034132;28;1894;-41
2022/04/07 08:14:29;;;;;;;;;;;;;;;29.52;22.54;99750.16;5025846;28;1447;-41
2022/04/07 08:16:54;;;;;;;;;;;;;;;28.92;23.38;99744.19;5029641;28;1309;-41
2022/04/07 08:19:20;;;;;;;;;;;;;;;28.77;23.65;99724.72;5028701;28;1450;-41
2022/04/07 08:21:46;;;;;;;;;;;;;;;28.98;23.73;99706.50;5034588;28;1188;-41
2022/04/07 08:24:11;;;;;;;;;;;;;;;29.93;22.84;99696.34;5031339;28;1603;-41
2022/04/07 08:26:36;;;;;;;;;;;;;;;29.92;22.90;99689.28;5035535;28;1234;-41
2022/04/07 08:29:02;;;;;;;;;;;;;;;29.58;22.60;99696.94;5029516;28;1235;-41
2022/04/07 08:31:27;;;;;;;;;;;;;;;28.82;23.46;99690.56;5033481;28;1898;-41
2022/04/07 08:33:52;;;;;;;;;;;;;;;29.36;23.67;99683.03;5032193;28;1315;-41
2022/04/07 08:36:18;;;;;;;;;;;;;;;29.96;23.01;99681.53;5026830;28;1505;-41
2022/04/07 08:38:43;;;;;;;;;;;;;;;29.97;23.06;99682.34;5026677;28;1474;-43
2022/04/07 08:41:09;;;;;;;;;;;;;;;29.29;22.91;99683.94;5021007;28;1174;-42
2022/04/07 08:43:38;;;;;;;;;;;;;;;28.98;23.30;99663.19;5024606;28;1308;-41
2022/04/07 08:46:05;;;;;;;;;;;;;;;28.83;23.92;99650.75;5030827;28;1205;-42
2022/04/07 08:48:30;;;;;;;;;;;;;;;29.88;23.10;99633.06;5018457;28;758;-41
2022/04/07 08:50:56;;;;;;;;;;;;;;;29.87;23.04;99631.38;5030423;28;1919;-41
2022/04/07 08:53:21;;;;;;;;;;;;;;;29.53;23.16;99632.59;5021896;28;1510;-41
2022/04/07 08:55:46;;;;;;;;;;;;;;;29.23;23.31;99625.22;5030284;28;1094;-42
2022/04/07 08:58:17;;;;;;;;;;;;;;;28.81;22.85;99620.41;5021540;28;1476;-41
2022/04/07 09:00:42;;;;;;;;;;;;;;;28.70;23.34;99601.13;5018663;28;849;-41
2022/04/07 09:03:08;;;;;;;;;;;;;;;29.72;22.45;99605.50;5018560;28;1139;-41
2022/04/07 09:05:33;;;;;;;;;;;;;;;29.76;22.27;99605.88;5018951;28;1047;-42
2022/04/07 09:07:58;;;;;;;;;;;;;;;29.56;22.32;99601.53;5018257;28;861;-41
2022/04/07 09:10:24;;;;;;;;;;;;;;;29.15;22.53;99601.97;5028282;28;923;-41
2022/04/07 09:12:52;;;;;;;;;;;;;;;28.79;22.82;99600.84;5018853;28;1964;-42
2022/04/07 09:15:18;;;;;;;;;;;;;;;29.14;22.96;99594.91;5018979;28;818;-42
2022/04/07 09:17:50;;;;;;;;;;;;;;;29.34;22.44;99575.72;5019008;28;830;-42
2022/04/07 09:20:15;;;;;;;;;;;;;;;29.05;22.78;99569.16;5021152;28;1203;-41
2022/04/07 09:22:41;;;;;;;;;;;;;;;29.01;22.75;99579.63;5020682;28;839;-43
2022/04/07 09:25:06;;;;;;;;;;;;;;;28.61;22.99;99575.41;5021465;28;1454;-43
2022/04/07 09:27:32;;;;;;;;;;;;;;;28.46;23.19;99573.06;5018495;28;826;-43
2022/04/07 09:29:57;;;;;;;;;;;;;;;28.96;22.84;99569.44;5019151;28;779;-43
2022/04/07 09:32:23;;;;;;;;;;;;;;;29.63;22.06;99558.91;5024888;28;1906;-43
2022/04/07 09:34:55;;;;;;;;;;;;;;;29.18;22.45;99552.78;5018957;28;952;-42
2022/04/07 09:37:21;;;;;;;;;;;;;;;28.94;22.57;99557.19;5022185;28;1119;-43
2022/04/07 09:39:47;;;;;;;;;;;;;;;27.59;23.23;99432.84;5026606;28;1343;-41
2022/04/07 09:42:19;;;;;;;;;;;;;;;28.40;22.97;99542.28;5029315;28;1367;-41
2022/04/07 09:44:45;;;;;;;;;;;;;;;28.45;23.23;99525.38;5025505;28;1212;-42
2022/04/07 09:47:13;;;;;;;;;;;;;;;28.94;22.56;99522.84;5022772;28;1050;-42
2022/04/07 09:49:39;;;;;;;;;;;;;;;30.24;21.74;99535.53;5029919;28;1233;-41
2022/04/07 09:52:05;;;;;;;;;;;;;;;29.21;22.37;99521.72;5029048;28;1918;-41
2022/04/07 09:54:31;;;;;;;;;;;;;;;28.66;22.96;99509.81;5034869;28;1272;-42
2022/04/07 09:56:56;;;;;;;;;;;;;;;28.47;23.36;99507.91;5030495;28;1236;-41
2022/04/07 09:59:21;;;;;;;;;;;;;;;28.36;23.22;99508.63;5030914;28;1227;-41
2022/04/07 10:01:50;;;;;;;;;;;;;;;28.19;23.55;99490.25;5031307;28;1328;-41
2022/04/07 10:04:16;;;;;;;;;;;;;;;28.16;23.81;99489.84;5028916;28;1435;-42
2022/04/07 10:06:41;;;;;;;;;;;;;;;28.06;24.13;99472.22;5021263;28;1383;-41
2022/04/07 10:09:08;;;;;;;;;;;;;;;28.88;23.87;99474.19;5041577;28;1498;-41
2022/04/07 10:11:33;;;;;;;;;;;;;;;29.13;23.45;99457.84;5033955;28;1902;-42
2022/04/07 10:13:59;;;;;;;;;;;;;;;29.07;23.50;99451.50;5029102;28;1200;-41
2022/04/07 10:16:27;;;;;;;;;;;;;;;29.40;23.28;99433.13;5017212;28;754;-41
2022/04/07 10:19:04;;;;;;;;;;;;;;;29.74;22.72;99424.53;5029380;28;1264;-42
2022/04/07 10:21:48;;;;;;;;;;;;;;;29.88;22.59;99410.75;5030086;28;1278;-42
2022/04/07 10:24:13;;;;;;;;;;;;;;;29.99;22.60;99395.53;5022673;28;1343;-41
2022/04/07 10:26:40;;;;;;;;;;;;;;;29.74;22.31;99392.00;5021429;28;804;-41
2022/04/07 10:29:05;;;;;;;;;;;;;;;29.28;22.90;99373.50;5031063;28;1293;-41
2022/04/07 10:31:32;;;;;;;;;;;;;;;29.74;22.89;99374.91;5031396;28;1871;-41
2022/04/07 10:34:07;;;;;;;;;;;;;;;29.69;22.93;99356.66;5026424;28;1306;-43
2022/04/07 10:36:35;;;;;;;;;;;;;;;29.75;22.71;99358.41;5024541;28;1187;-41
2022/04/07 10:39:01;;;;;;;;;;;;;;;29.89;22.82;99371.72;5032559;28;1489;-41
2022/04/07 10:41:35;;;;;;;;;;;;;;;29.99;22.70;99369.25;5023171;28;1609;-41
2022/04/07 10:44:24;;;;;;;;;;;;;;;29.64;22.50;99384.44;5022587;28;1169;-43
2022/04/07 10:46:49;;;;;;;;;;;;;;;29.41;22.68;99399.53;5026283;28;1349;-41
2022/04/07 10:49:24;;;;;;;;;;;;;;;30.22;22.26;99399.34;5026246;28;1380;-41
2022/04/07 10:51:53;;;;;;;;;;;;;;;30.16;22.28;99399.19;5030062;28;2009;-41
2022/04/07 10:54:18;;;;;;;;;;;;;;;29.42;22.65;99414.75;5027718;28;1273;-42
2022/04/07 10:56:48;;;;;;;;;;;;;;;28.80;23.66;99418.47;5024392;28;1288;-41
2022/04/07 10:59:16;;;;;;;;;;;;;;;29.69;22.95;99402.72;5032577;28;1151;-41
2022/04/07 11:01:42;;;;;;;;;;;;;;;29.93;22.62;99418.97;5032392;28;1199;-43
2022/04/07 11:04:31;;;;;;;;;;;;;;;30.04;22.64;99411.94;5023094;28;1165;-42
2022/04/07 11:07:05;;;;;;;;;;;;;;;29.37;22.46;99392.13;5026883;28;1787;-41
2022/04/07 11:09:40;;;;;;;;;;;;;;;28.95;23.01;99380.19;5020636;28;1158;-41
2022/04/07 11:12:08;;;;;;;;;;;;;;;29.23;23.19;99394.22;5020953;28;1926;-41
2022/04/07 11:14:34;;;;;;;;;;;;;;;29.58;22.70;99405.13;5029226;28;1325;-42
2022/04/07 11:16:59;;;;;;;;;;;;;;;29.43;22.87;99383.91;5022991;28;1169;-42
2022/04/07 11:19:24;;;;;;;;;;;;;;;29.21;22.75;99340.28;5025473;28;1382;-41
2022/04/07 11:21:50;;;;;;;;;;;;;;;28.79;23.42;99335.63;5023114;28;1335;-43
2022/04/07 11:24:16;;;;;;;;;;;;;;;28.57;23.75;99326.13;5029467;28;1316;-41
2022/04/07 11:26:41;;;;;;;;;;;;;;;29.24;23.36;99303.78;5022087;28;1443;-41
2022/04/07 11:29:07;;;;;;;;;;;;;;;29.84;22.49;99301.13;5025039;28;1174;-41
2022/04/07 11:31:43;;;;;;;;;;;;;;;29.97;22.46;99302.75;5027766;28;1948;-41
2022/04/07 11:34:27;;;;;;;;;;;;;;;29.27;22.99;99325.81;5028922;28;1182;-41
2022/04/07 11:36:52;;;;;;;;;;;;;;;28.81;23.60;99331.63;5019411;28;1076;-41
2022/04/07 11:39:17;;;;;;;;;;;;;;;28.59;23.69;99310.47;5022545;28;1384;-46
2022/04/07 11:41:43;;;;;;;;;;;;;;;29.36;23.12;99298.38;5026732;28;1288;-41
2022/04/07 11:44:09;;;;;;;;;;;;;;;29.57;22.96;99294.28;5031896;28;1201;-41
2022/04/07 11:46:34;;;;;;;;;;;;;;;29.59;22.84;99265.09;5027737;28;1379;-41
2022/04/07 11:49:00;;;;;;;;;;;;;;;29.38;22.91;99270.00;5031200;28;1268;-42
2022/04/07 11:51:25;;;;;;;;;;;;;;;28.99;23.50;99292.09;5024879;28;1977;-42
2022/04/07 11:53:52;;;;;;;;;;;;;;;28.70;23.63;99300.78;5028193;28;1197;-41
2022/04/07 11:56:27;;;;;;;;;;;;;;;29.39;23.80;99274.38;5032087;28;1398;-41
2022/04/07 11:58:56;;;;;;;;;;;;;;;30.10;22.66;99315.25;5027909;28;1272;-41
2022/04/07 12:01:21;;;;;;;;;;;;;;;29.27;23.30;99324.97;5026051;28;1359;-41
2022/04/07 12:03:50;;;;;;;;;;;;;;;28.79;23.63;99308.56;5025153;28;1322;-42
2022/04/07 12:06:15;;;;;;;;;;;;;;;28.73;24.21;99311.13;5025886;28;1316;-42
2022/04/07 12:08:41;;;;;;;;;;;;;;;28.66;24.02;99315.00;5029327;28;1367;-42
2022/04/07 12:11:06;;;;;;;;;;;;;;;28.68;24.31;99326.41;5029555;28;1960;-41
2022/04/07 12:13:32;;;;;;;;;;;;;;;28.54;24.57;99323.06;5028552;28;1268;-41
2022/04/07 12:15:58;;;;;;;;;;;;;;;28.34;25.03;99295.19;5025276;28;1339;-41
2022/04/07 12:18:26;;;;;;;;;;;;;;;28.40;25.38;99285.34;5026145;28;1229;-41
2022/04/07 12:21:05;;;;;;;;;;;;;;;29.02;24.68;99288.06;5028062;28;1161;-41
2022/04/07 12:23:31;;;;;;;;;;;;;;;29.26;24.31;99317.91;5021528;28;1301;-41
2022/04/07 12:26:00;;;;;;;;;;;;;;;29.34;24.07;99315.69;5027329;28;1288;-41
2022/04/07 12:28:38;;;;;;;;;;;;;;;29.91;23.42;99324.34;5026271;28;1483;-41
2022/04/07 12:31:04;;;;;;;;;;;;;;;29.98;23.14;99291.69;5032225;28;1886;-41
2022/04/07 12:33:41;;;;;;;;;;;;;;;30.12;23.16;99286.84;5024473;28;1466;-42
2022/04/07 12:36:13;;;;;;;;;;;;;;;30.28;22.75;99287.19;5024256;28;1330;-41
2022/04/07 12:38:39;;;;;;;;;;;;;;;29.61;23.12;99281.13;5019588;28;1228;-43
2022/04/07 12:41:23;;;;;;;;;;;;;;;29.29;23.27;99274.13;5021291;28;1149;-42
2022/04/07 12:43:52;;;;;;;;;;;;;;;30.27;22.90;99269.25;5023603;28;1423;-41
2022/04/07 12:46:19;;;;;;;;;;;;;;;30.32;22.89;99272.06;5026749;28;1469;-42
2022/04/07 12:49:03;;;;;;;;;;;;;;;30.33;22.83;99268.28;5034430;28;1224;-42
2022/04/07 12:51:29;;;;;;;;;;;;;;;30.29;22.76;99280.69;5018911;28;1914;-42
2022/04/07 12:54:07;;;;;;;;;;;;;;;30.24;22.48;99281.41;5025768;28;1334;-42